Time;durP1;ratioP1;P1;durP2;ratioP2;P2;SDS_P1;SDS_P2;PMS_P1;PMS_P2;Temp;Humidity;BMP_temperature;BMP_pressure;BME280_temperature;BME280_humidity;BME280_pressure;Samples;Min_cycle;Max_cycle;Signal;HPM_P1;HPM_P2
2022/01/14 00:04:07;;;;;;;24.92;16.45;;;0.60;99.90;;;;;;1961402;72;22249;-90
2022/01/14 00:06:59;;;;;;;25.43;16.70;;;0.50;99.90;;;;;;1904932;75;21076;-89
2022/01/14 00:09:50;;;;;;;25.95;16.32;;;0.40;99.90;;;;;;1905263;75;21111;-89
2022/01/14 00:12:50;;;;;;;27.07;17.67;;;0.40;99.90;;;;;;1905128;75;21091;-89
2022/01/14 00:15:35;;;;;;;26.35;17.15;;;0.40;99.90;;;;;;1914727;73;21164;-89
2022/01/14 00:18:28;;;;;;;27.25;17.37;;;0.40;99.90;;;;;;1915266;74;21098;-89
2022/01/14 00:21:20;;;;;;;26.60;17.37;;;0.40;99.90;;;;;;1905313;75;21091;-90
2022/01/14 00:24:23;;;;;;;27.48;17.82;;;0.30;99.90;;;;;;1857574;76;21102;-89
2022/01/14 00:36:30;;;;;;;27.15;17.25;;;0.30;99.90;;;;;;1946712;72;22248;-90
2022/01/14 00:39:22;;;;;;;26.52;16.87;;;0.20;99.90;;;;;;1895556;75;21067;-88
2022/01/14 00:42:14;;;;;;;24.98;16.30;;;0.20;99.90;;;;;;1889545;75;21103;-90
2022/01/14 00:45:07;;;;;;;26.37;16.65;;;0.20;99.90;;;;;;1894121;75;21153;-88
2022/01/14 00:48:00;;;;;;;24.70;16.73;;;0.30;99.90;;;;;;1887670;75;21129;-88
2022/01/14 00:50:51;;;;;;;24.65;16.07;;;0.30;99.90;;;;;;1890312;75;21585;-88
2022/01/14 00:53:43;;;;;;;24.72;15.90;;;0.30;99.90;;;;;;1893296;75;21070;-89
2022/01/14 00:56:46;;;;;;;26.15;16.25;;;0.30;99.90;;;;;;1870791;75;21173;-89
2022/01/14 00:59:28;;;;;;;25.90;16.75;;;0.30;99.90;;;;;;1887292;75;21110;-89
2022/01/14 01:05:00;;;;;;;25.92;16.93;;;0.20;99.90;;;;;;1936544;72;22216;-90
2022/01/14 01:10:33;;;;;;;25.77;15.90;;;0.20;99.90;;;;;;1952333;72;22209;-89
2022/01/14 01:16:07;;;;;;;27.60;15.80;;;0.20;99.90;;;;;;1957617;72;22248;-89
2022/01/14 01:18:58;;;;;;;27.67;16.82;;;0.30;99.90;;;;;;1932212;73;21099;-88
2022/01/14 01:21:50;;;;;;;23.05;15.45;;;0.30;99.90;;;;;;1924747;73;21569;-88
2022/01/14 01:24:42;;;;;;;24.02;16.00;;;0.20;99.90;;;;;;1924433;73;21136;-88
2022/01/14 01:27:38;;;;;;;28.90;16.32;;;0.20;99.90;;;;;;1927757;74;21113;-87
2022/01/14 01:30:49;;;;;;;27.50;16.73;;;0.20;99.90;;;;;;1921758;74;21063;-88
2022/01/14 01:33:30;;;;;;;25.05;15.80;;;0.10;99.90;;;;;;1907203;74;21103;-89
2022/01/14 01:36:22;;;;;;;24.77;15.88;;;0.10;99.90;;;;;;1930990;74;21094;-88
2022/01/14 01:39:16;;;;;;;29.10;16.40;;;0.10;99.90;;;;;;1933347;74;21059;-88
2022/01/14 01:42:10;;;;;;;25.27;15.83;;;0.10;99.90;;;;;;1905496;75;21044;-88
2022/01/14 01:45:09;;;;;;;25.88;15.70;;;0.10;99.90;;;;;;1923366;74;21098;-89
2022/01/14 02:03:54;;;;;;;24.60;15.68;;;0.00;99.90;;;;;;1957840;72;22370;-90
2022/01/14 02:06:46;;;;;;;25.37;15.30;;;0.00;99.90;;;;;;1915791;74;21201;-89
2022/01/14 02:09:38;;;;;;;24.92;15.63;;;0.00;99.90;;;;;;1905042;75;21209;-88
2022/01/14 02:15:14;;;;;;;24.57;15.30;;;0.00;99.90;;;;;;1941216;72;22276;-89
2022/01/14 02:18:30;;;;;;;25.35;16.57;;;0.00;99.90;;;;;;1918761;74;21089;-89
2022/01/14 02:24:54;;;;;;;25.65;16.32;;;-0.20;99.90;;;;;;1906621;75;21087;-88
2022/01/14 02:30:10;;;;;;;22.30;15.60;;;-0.10;99.90;;;;;;1964672;72;22107;-88
2022/01/14 02:33:02;;;;;;;24.52;15.58;;;-0.10;99.90;;;;;;1906757;74;21107;-89
2022/01/14 02:35:54;;;;;;;27.52;15.55;;;-0.20;99.90;;;;;;1905313;75;21158;-89
2022/01/14 02:41:25;;;;;;;25.08;16.07;;;-0.20;99.90;;;;;;1976620;72;22178;-89
2022/01/14 02:47:04;;;;;;;27.77;16.07;;;-0.20;99.90;;;;;;1958246;72;22253;-89
2022/01/14 02:52:42;;;;;;;23.18;15.45;;;-0.30;99.90;;;;;;1949234;72;22231;-90
2022/01/14 02:55:29;;;;;;;22.65;15.15;;;-0.30;99.90;;;;;;1898478;75;21486;-89
2022/01/14 02:58:19;;;;;;;24.80;16.42;;;-0.20;99.90;;;;;;1866581;75;21131;-89
2022/01/14 03:01:13;;;;;;;23.70;15.55;;;-0.30;99.90;;;;;;1888921;75;21197;-89
2022/01/14 03:04:07;;;;;;;24.05;15.10;;;-0.30;99.90;;;;;;1884965;75;21040;-88
2022/01/14 03:06:59;;;;;;;22.40;14.90;;;-0.20;99.90;;;;;;1901960;75;21095;-89
2022/01/14 03:09:50;;;;;;;24.67;16.05;;;-0.20;99.90;;;;;;1899282;75;21158;-89
2022/01/14 03:15:28;;;;;;;24.95;16.00;;;-0.20;99.90;;;;;;1952245;72;22131;-89
2022/01/14 03:21:09;;;;;;;23.12;14.70;;;-0.20;99.90;;;;;;1958271;72;22236;-89
2022/01/14 03:24:05;;;;;;;23.27;14.78;;;-0.20;99.90;;;;;;1917875;75;21165;-88
2022/01/14 03:26:55;;;;;;;24.98;15.38;;;-0.30;99.90;;;;;;1885014;76;21091;-90
2022/01/14 03:29:46;;;;;;;24.02;14.73;;;-0.30;99.90;;;;;;1907384;75;21188;-89
2022/01/14 03:32:38;;;;;;;24.95;15.20;;;-0.30;99.90;;;;;;1906746;75;21051;-89
2022/01/14 03:35:30;;;;;;;23.27;15.48;;;-0.30;99.90;;;;;;1893216;75;21062;-90
2022/01/14 03:38:21;;;;;;;23.45;14.43;;;-0.30;99.90;;;;;;1898962;75;21163;-88
2022/01/14 03:41:13;;;;;;;23.92;14.47;;;-0.30;99.90;;;;;;1906634;75;21059;-88
2022/01/14 03:44:05;;;;;;;23.45;13.72;;;-0.30;99.90;;;;;;1888625;75;21104;-90
2022/01/14 03:46:56;;;;;;;22.32;14.63;;;-0.30;99.90;;;;;;1900010;75;21103;-88
2022/01/14 03:49:48;;;;;;;24.18;13.90;;;-0.30;99.90;;;;;;1900154;75;21074;-90
2022/01/14 03:55:49;;;;;;;23.70;14.23;;;-0.40;99.90;;;;;;2067613;68;22242;-89
2022/01/14 03:58:42;;;;;;;24.25;14.15;;;-0.40;99.90;;;;;;2021014;70;21124;-90
2022/01/14 04:01:34;;;;;;;22.00;14.38;;;-0.40;99.90;;;;;;2011984;70;21098;-89
2022/01/14 04:04:25;;;;;;;21.52;14.43;;;-0.30;99.90;;;;;;2030463;70;21099;-91
2022/01/14 04:07:17;;;;;;;21.27;14.60;;;-0.40;99.90;;;;;;1998923;72;21062;-89
2022/01/14 04:10:12;;;;;;;23.10;14.83;;;-0.40;99.90;;;;;;2023834;70;21100;-91
2022/01/14 04:13:11;;;;;;;21.20;13.65;;;-0.40;99.90;;;;;;2023560;70;21132;-89
2022/01/14 04:15:57;;;;;;;21.62;13.75;;;-0.40;99.90;;;;;;2019776;70;21035;-90
2022/01/14 04:18:50;;;;;;;25.37;14.60;;;-0.40;99.90;;;;;;2018264;70;21089;-89
2022/01/14 04:21:43;;;;;;;22.98;14.53;;;-0.40;99.90;;;;;;2025991;70;21163;-89
2022/01/14 04:24:34;;;;;;;22.58;15.00;;;-0.50;99.90;;;;;;2027887;70;21027;-87
2022/01/14 04:30:06;;;;;;;22.82;14.58;;;-0.40;99.90;;;;;;1951174;72;22115;-89
2022/01/14 04:32:58;;;;;;;22.30;14.55;;;-0.40;99.90;;;;;;1884998;75;21147;-88
2022/01/14 04:35:51;;;;;;;21.65;13.70;;;-0.40;99.90;;;;;;1883862;75;21063;-88
2022/01/14 04:41:22;;;;;;;25.20;14.95;;;-0.40;99.90;;;;;;1955875;72;22256;-90
2022/01/14 04:44:13;;;;;;;23.77;15.35;;;-0.40;99.90;;;;;;1910758;74;21099;-89
2022/01/14 04:47:17;;;;;;;22.62;14.95;;;-0.40;99.90;;;;;;1902178;75;21128;-88
2022/01/14 04:52:51;;;;;;;25.15;15.13;;;-0.60;99.90;;;;;;1955217;72;22165;-89
2022/01/14 04:55:43;;;;;;;24.12;15.43;;;-0.60;99.90;;;;;;1914156;75;21135;-88
2022/01/14 04:58:35;;;;;;;24.23;14.70;;;-0.60;99.90;;;;;;1895688;75;21083;-88
2022/01/14 05:01:26;;;;;;;25.77;15.43;;;-0.70;99.90;;;;;;1898481;75;21058;-88
2022/01/14 05:07:01;;;;;;;24.47;15.80;;;-0.70;99.90;;;;;;1938789;72;22241;-89
2022/01/14 05:09:58;;;;;;;24.95;15.40;;;-0.70;99.90;;;;;;1886253;75;21124;-89
2022/01/14 05:12:45;;;;;;;25.12;15.20;;;-0.70;99.90;;;;;;1887002;75;21350;-90
2022/01/14 05:15:36;;;;;;;22.75;14.80;;;-0.70;99.90;;;;;;1905435;75;21072;-89
2022/01/14 05:18:31;;;;;;;23.75;14.83;;;-0.70;99.90;;;;;;1889222;75;21123;-88
2022/01/14 05:21:22;;;;;;;22.35;14.47;;;-0.70;99.90;;;;;;1879343;75;21129;-89
2022/01/14 05:24:14;;;;;;;22.90;14.53;;;-0.70;99.90;;;;;;1873397;75;21122;-89
2022/01/14 05:27:06;;;;;;;23.62;15.32;;;-0.80;99.90;;;;;;1888233;75;21136;-89
2022/01/14 05:29:57;;;;;;;22.10;14.40;;;-0.70;99.90;;;;;;1904973;75;21120;-89
2022/01/14 05:35:29;;;;;;;22.50;14.00;;;-0.80;99.90;;;;;;1947898;72;22103;-89
2022/01/14 05:41:02;;;;;;;23.67;14.98;;;-0.80;99.90;;;;;;1939388;72;22201;-89
2022/01/14 05:43:53;;;;;;;23.47;14.60;;;-0.80;99.90;;;;;;1822543;77;21148;-91
2022/01/14 05:46:45;;;;;;;22.73;14.83;;;-0.80;99.90;;;;;;1873057;76;21059;-89
2022/01/14 05:49:36;;;;;;;20.60;13.45;;;-0.70;99.90;;;;;;1872937;76;21180;-88
2022/01/14 05:55:11;;;;;;;21.48;14.10;;;-0.70;99.90;;;;;;1946012;72;22226;-90
2022/01/14 06:00:41;;;;;;;22.77;14.43;;;-0.80;99.90;;;;;;1936484;72;22130;-90
2022/01/14 06:03:33;;;;;;;21.65;14.20;;;-0.80;99.90;;;;;;1886477;75;21100;-88
2022/01/14 06:06:25;;;;;;;23.80;13.93;;;-0.80;99.90;;;;;;1886070;75;21221;-89
2022/01/14 06:09:16;;;;;;;24.95;14.45;;;-0.80;99.90;;;;;;1896430;75;21114;-90
2022/01/14 06:12:10;;;;;;;23.45;14.55;;;-0.80;99.90;;;;;;1883694;75;21063;-89
2022/01/14 06:15:03;;;;;;;22.73;14.80;;;-0.80;99.90;;;;;;1904791;75;21064;-90
2022/01/14 06:17:54;;;;;;;22.13;15.13;;;-0.80;99.90;;;;;;1898561;75;21196;-88
2022/01/14 06:20:46;;;;;;;22.10;13.98;;;-0.70;99.90;;;;;;1904158;75;21047;-88
2022/01/14 06:23:38;;;;;;;20.62;14.20;;;-0.80;99.90;;;;;;1889243;75;21161;-89
2022/01/14 06:26:30;;;;;;;22.35;13.72;;;-0.80;99.90;;;;;;1898707;75;21114;-89
2022/01/14 06:29:22;;;;;;;22.10;14.55;;;-0.80;99.90;;;;;;1898770;75;21103;-90
2022/01/14 06:32:16;;;;;;;21.17;13.90;;;-0.90;99.90;;;;;;1891487;75;21051;-89
2022/01/14 06:35:09;;;;;;;24.15;14.45;;;-0.90;99.90;;;;;;1891774;75;21095;-89
2022/01/14 06:38:01;;;;;;;23.52;14.40;;;-0.90;99.90;;;;;;1894741;75;21063;-89
2022/01/14 06:40:52;;;;;;;22.40;13.90;;;-0.80;99.90;;;;;;1876979;75;21056;-91
2022/01/14 06:46:23;;;;;;;21.25;13.48;;;-0.80;99.90;;;;;;1965257;72;22235;-90
2022/01/14 06:49:15;;;;;;;21.95;13.93;;;-0.80;99.90;;;;;;1929869;74;21083;-89
2022/01/14 06:52:07;;;;;;;23.57;15.83;;;-0.80;99.90;;;;;;1913826;74;21055;-92
2022/01/14 06:57:47;;;;;;;24.02;13.98;;;-0.90;99.90;;;;;;1961638;72;22182;-90
2022/01/14 07:00:38;;;;;;;25.05;14.55;;;-0.90;99.90;;;;;;1917626;75;21119;-88
2022/01/14 07:03:30;;;;;;;21.23;13.68;;;-0.90;99.90;;;;;;1917789;75;21200;-88
2022/01/14 07:06:21;;;;;;;23.65;14.13;;;-0.90;99.90;;;;;;1917847;75;21187;-91
2022/01/14 07:11:59;;;;;;;20.45;13.78;;;-0.90;99.90;;;;;;1944123;72;22143;-89
2022/01/14 07:14:50;;;;;;;20.35;13.22;;;-0.90;99.90;;;;;;1917516;75;21152;-90
2022/01/14 07:20:27;;;;;;;22.55;14.20;;;-0.80;99.90;;;;;;1948009;72;20106;-89
2022/01/14 07:26:02;;;;;;;22.80;13.72;;;-0.90;99.90;;;;;;1944692;72;22195;-89
2022/01/14 07:28:53;;;;;;;24.10;13.45;;;-0.90;99.90;;;;;;1822144;77;21144;-89
2022/01/14 07:31:45;;;;;;;24.32;14.73;;;-0.80;99.90;;;;;;1885246;75;21090;-89
2022/01/14 07:34:37;;;;;;;20.95;14.38;;;-0.90;99.90;;;;;;1883421;75;21135;-91
2022/01/14 07:40:10;;;;;;;24.75;14.73;;;-0.90;99.90;;;;;;1937195;72;22609;-89
2022/01/14 07:43:02;;;;;;;23.77;14.43;;;-0.90;99.90;;;;;;1884213;75;21120;-89
2022/01/14 07:45:53;;;;;;;24.45;15.43;;;-0.90;99.90;;;;;;1883953;75;21172;-89
2022/01/14 07:51:40;;;;;;;21.52;14.25;;;-0.90;99.90;;;;;;1939498;72;22717;-90
2022/01/14 07:54:31;;;;;;;20.82;13.30;;;-0.90;99.90;;;;;;1884701;76;21062;-89
2022/01/14 07:57:23;;;;;;;23.65;14.83;;;-0.80;99.90;;;;;;1893412;75;21091;-91
2022/01/14 08:00:16;;;;;;;21.68;15.13;;;-0.80;99.90;;;;;;1887680;75;21117;-91
2022/01/14 08:06:00;;;;;;;28.10;16.20;;;-0.80;99.90;;;;;;1945110;72;22236;-89
2022/01/14 08:11:31;;;;;;;27.10;16.05;;;-0.80;99.90;;;;;;1972262;72;22110;-89
2022/01/14 08:14:23;;;;;;;23.10;15.75;;;-0.80;99.90;;;;;;1905302;75;21126;-91
2022/01/14 08:17:18;;;;;;;25.25;15.28;;;-0.70;99.90;;;;;;1905103;75;21094;-90
2022/01/14 08:20:10;;;;;;;27.15;16.25;;;-0.70;99.90;;;;;;1905138;75;21227;-90
2022/01/14 08:23:02;;;;;;;23.65;15.13;;;-0.70;99.90;;;;;;1906004;75;21092;-90
2022/01/14 08:25:57;;;;;;;22.37;14.55;;;-0.60;99.90;;;;;;1905300;75;21063;-90
2022/01/14 08:31:28;;;;;;;26.62;15.18;;;-0.60;99.90;;;;;;1953046;72;22618;-90
2022/01/14 08:34:19;;;;;;;25.35;15.23;;;-0.60;99.90;;;;;;1926080;73;21056;-91
2022/01/14 08:37:13;;;;;;;27.13;15.58;;;-0.50;99.90;;;;;;1917226;74;21127;-90
2022/01/14 08:40:09;;;;;;;26.05;16.73;;;-0.40;99.90;;;;;;1905458;75;21106;-95
2022/01/14 08:43:02;;;;;;;24.80;15.53;;;-0.40;99.90;;;;;;1905661;75;21149;-95
2022/01/14 08:45:53;;;;;;;28.20;16.17;;;-0.40;99.90;;;;;;1905472;75;21099;-91
2022/01/14 10:41:31;;;;;;;18.57;11.55;;;2.20;99.90;;;;;;1951434;72;22186;-83
2022/01/14 10:44:28;;;;;;;23.18;13.88;;;2.20;99.90;;;;;;1884127;75;21125;-83
2022/01/14 10:47:22;;;;;;;19.10;12.20;;;2.30;99.90;;;;;;1891318;75;21046;-81
2022/01/14 10:50:13;;;;;;;19.60;12.78;;;2.40;99.90;;;;;;1893809;75;21044;-83
2022/01/14 10:55:46;;;;;;;23.57;15.13;;;2.50;99.90;;;;;;1936652;72;22119;-82
2022/01/14 10:58:39;;;;;;;20.32;12.95;;;2.50;99.90;;;;;;1898449;75;21200;-82
2022/01/14 11:01:33;;;;;;;19.77;13.03;;;2.70;99.90;;;;;;1902925;73;21081;-82
2022/01/14 11:07:10;;;;;;;20.65;12.58;;;2.80;99.90;;;;;;1957836;72;22244;-82
2022/01/14 11:10:04;;;;;;;20.95;12.75;;;2.80;99.90;;;;;;1905753;75;21067;-82
2022/01/14 11:12:57;;;;;;;19.57;12.35;;;2.90;99.90;;;;;;1899633;75;21063;-82
2022/01/14 11:18:28;;;;;;;20.77;12.18;;;3.00;99.90;;;;;;1947740;72;22685;-83
2022/01/14 11:24:32;;;;;;;21.10;12.53;;;3.20;99.90;;;;;;1888533;75;21154;-83
2022/01/14 11:27:25;;;;;;;21.17;13.18;;;3.30;99.90;;;;;;1898005;75;21062;-82
2022/01/14 11:30:17;;;;;;;20.55;14.20;;;3.30;99.90;;;;;;1894104;73;21221;-82
2022/01/14 11:33:10;;;;;;;24.82;14.43;;;3.40;99.90;;;;;;1906745;75;21106;-82
2022/01/14 11:36:02;;;;;;;23.87;15.55;;;3.40;99.90;;;;;;1905676;75;21194;-82
2022/01/14 11:41:55;;;;;;;25.62;16.15;;;3.60;99.90;;;;;;1950509;72;22240;-82
2022/01/14 11:48:02;;;;;;;24.82;16.85;;;3.70;99.90;;;;;;1946436;72;22228;-82
2022/01/14 11:50:56;;;;;;;23.30;15.32;;;3.80;99.90;;;;;;1906431;74;21156;-81
2022/01/14 11:56:49;;;;;;;23.12;16.15;;;3.90;99.90;;;;;;1942390;72;22218;-82
2022/01/14 12:05:34;;;;;;;24.87;16.57;;;4.00;99.90;;;;;;1943148;72;22159;-82
2022/01/14 12:08:27;;;;;;;26.33;17.05;;;4.10;99.90;;;;;;1906753;73;21047;-81
2022/01/14 12:11:24;;;;;;;23.35;15.53;;;4.10;99.90;;;;;;1905209;74;21088;-82
2022/01/14 12:14:16;;;;;;;23.35;15.65;;;4.20;99.90;;;;;;1938815;74;21176;-83
2022/01/14 12:17:13;;;;;;;23.70;17.00;;;4.20;99.90;;;;;;1917391;75;21121;-82
2022/01/14 12:20:13;;;;;;;23.07;16.27;;;4.30;99.90;;;;;;1917568;75;21195;-81
2022/01/14 12:23:10;;;;;;;24.72;15.85;;;4.40;99.90;;;;;;1919634;73;21058;-82
2022/01/14 12:26:14;;;;;;;19.23;13.90;;;4.50;99.90;;;;;;1917255;75;21055;-82
2022/01/14 12:29:14;;;;;;;19.65;13.22;;;4.60;99.90;;;;;;1930445;73;21121;-82
2022/01/14 12:32:08;;;;;;;17.23;12.63;;;4.50;99.90;;;;;;1875464;75;21067;-82
2022/01/14 12:35:06;;;;;;;18.12;12.53;;;4.70;99.90;;;;;;1847525;77;21607;-82
2022/01/14 12:38:01;;;;;;;20.82;13.88;;;4.60;99.90;;;;;;1837775;76;21239;-82
2022/01/14 12:40:56;;;;;;;18.55;13.00;;;4.70;99.90;;;;;;1900033;75;21113;-82
2022/01/14 12:46:52;;;;;;;18.27;12.70;;;4.80;99.90;;;;;;1949420;72;22123;-83
2022/01/14 12:49:36;;;;;;;18.17;12.37;;;4.90;99.90;;;;;;1927053;73;21092;-82
2022/01/14 12:55:11;;;;;;;18.32;12.30;;;4.90;99.90;;;;;;1932912;72;22212;-82
2022/01/14 13:00:43;;;;;;;18.48;12.88;;;5.00;99.90;;;;;;1925329;72;22327;-82
2022/01/14 13:03:35;;;;;;;21.37;11.95;;;5.00;99.90;;;;;;1866793;76;21154;-82
2022/01/14 13:06:27;;;;;;;19.05;12.55;;;5.10;99.90;;;;;;1911786;75;21101;-81
2022/01/14 13:09:21;;;;;;;15.65;10.13;;;5.10;99.90;;;;;;1899240;75;21047;-83
2022/01/14 13:12:16;;;;;;;14.65;9.80;;;5.10;99.90;;;;;;1838075;78;21122;-81
2022/01/14 13:15:10;;;;;;;14.65;10.03;;;5.10;99.90;;;;;;1907381;75;21050;-83
2022/01/14 13:18:04;;;;;;;13.58;9.45;;;5.20;99.90;;;;;;1908296;75;21172;-83
2022/01/14 13:20:55;;;;;;;14.05;9.43;;;5.30;99.90;;;;;;1908655;75;21150;-82
2022/01/14 13:23:48;;;;;;;14.33;9.98;;;5.30;99.90;;;;;;1904999;75;21145;-82
2022/01/14 13:26:42;;;;;;;13.58;9.88;;;5.40;99.90;;;;;;1902407;75;21127;-82
2022/01/14 13:29:48;;;;;;;14.50;10.30;;;5.40;99.90;;;;;;1898186;74;21100;-81
2022/01/14 13:32:39;;;;;;;12.17;9.63;;;5.40;99.90;;;;;;1905060;74;21153;-81
2022/01/14 13:35:33;;;;;;;14.65;9.95;;;5.30;99.90;;;;;;1901629;75;21157;-81
2022/01/14 13:38:25;;;;;;;14.87;9.30;;;5.40;99.90;;;;;;1879804;74;21131;-81
2022/01/14 13:44:17;;;;;;;12.15;9.08;;;5.50;99.90;;;;;;1941095;72;22166;-82
2022/01/14 13:47:12;;;;;;;13.95;8.60;;;5.40;99.90;;;;;;1872863;75;21064;-83
2022/01/14 13:50:12;;;;;;;11.57;8.70;;;5.50;99.90;;;;;;1891273;75;21092;-82
2022/01/14 13:53:03;;;;;;;14.23;10.13;;;5.50;99.90;;;;;;1889592;75;21048;-84
2022/01/14 13:55:57;;;;;;;16.30;10.68;;;5.70;99.90;;;;;;1902532;75;21514;-81
2022/01/14 13:58:54;;;;;;;14.47;11.03;;;5.70;99.90;;;;;;1877874;75;21051;-83
2022/01/14 14:01:57;;;;;;;14.35;10.68;;;5.60;99.90;;;;;;1894244;75;21091;-81
2022/01/14 14:04:47;;;;;;;16.27;12.20;;;5.70;99.90;;;;;;1891771;75;21185;-83
2022/01/14 14:07:49;;;;;;;21.05;12.35;;;5.70;99.90;;;;;;1889532;75;21130;-81
2022/01/14 14:16:54;;;;;;;16.48;12.35;;;5.80;99.90;;;;;;1948089;72;22243;-81
2022/01/14 14:19:48;;;;;;;23.45;13.50;;;5.90;99.90;;;;;;1828874;77;21058;-81
2022/01/14 14:22:42;;;;;;;22.45;14.68;;;5.90;99.90;;;;;;1848276;77;21129;-81
2022/01/14 14:25:40;;;;;;;24.43;15.32;;;5.90;99.90;;;;;;1832864;77;21105;-81
2022/01/14 14:28:31;;;;;;;22.70;15.28;;;5.90;99.90;;;;;;1898460;75;21107;-81
2022/01/14 14:31:29;;;;;;;21.57;14.25;;;5.90;99.90;;;;;;1886647;75;21095;-80
2022/01/14 14:34:23;;;;;;;24.92;15.55;;;6.00;99.90;;;;;;1907148;75;21043;-80
2022/01/14 14:37:15;;;;;;;22.67;15.05;;;6.10;99.90;;;;;;1884636;75;21113;-82
2022/01/14 14:40:15;;;;;;;25.20;15.63;;;6.10;99.90;;;;;;1900521;75;21134;-81
2022/01/14 14:43:05;;;;;;;20.57;14.40;;;6.10;99.90;;;;;;1897186;75;21051;-81
2022/01/14 14:45:57;;;;;;;20.32;15.15;;;6.10;99.90;;;;;;1909400;75;21051;-81
2022/01/14 14:48:49;;;;;;;20.43;14.90;;;6.10;99.90;;;;;;1889867;75;21105;-82
2022/01/14 14:51:41;;;;;;;21.55;15.50;;;6.10;99.90;;;;;;1884374;76;21056;-81
2022/01/14 14:54:33;;;;;;;20.43;15.18;;;6.10;99.90;;;;;;1898322;75;21075;-81
2022/01/14 14:57:24;;;;;;;18.00;13.38;;;6.10;99.90;;;;;;1895262;75;21095;-82
2022/01/14 15:00:19;;;;;;;22.80;13.48;;;6.20;99.90;;;;;;1895253;75;21055;-81
2022/01/14 15:03:11;;;;;;;19.12;12.70;;;6.10;99.90;;;;;;1896655;75;21116;-81
2022/01/14 15:06:02;;;;;;;18.48;12.23;;;6.10;99.90;;;;;;1900456;75;21109;-81
2022/01/14 15:08:54;;;;;;;16.90;12.18;;;6.10;99.90;;;;;;1895647;75;21081;-81
2022/01/14 15:11:45;;;;;;;19.45;11.70;;;6.10;99.90;;;;;;1895439;75;21091;-82
2022/01/14 15:14:37;;;;;;;18.37;12.95;;;6.00;99.90;;;;;;1895591;75;21066;-82
2022/01/14 15:20:43;;;;;;;20.60;12.10;;;5.90;99.90;;;;;;1888852;75;21499;-82
2022/01/14 15:23:34;;;;;;;19.00;13.18;;;5.90;99.90;;;;;;1895652;75;21090;-81
2022/01/14 15:26:26;;;;;;;19.92;12.53;;;5.80;99.90;;;;;;1877464;75;21120;-82
2022/01/14 15:29:18;;;;;;;20.12;14.28;;;5.70;99.90;;;;;;1884238;75;21167;-82
2022/01/14 15:32:11;;;;;;;20.60;14.68;;;5.70;99.90;;;;;;1899576;75;21127;-81
2022/01/14 15:35:03;;;;;;;22.42;15.28;;;5.70;99.90;;;;;;1895563;75;21090;-82
2022/01/14 15:38:01;;;;;;;20.82;15.25;;;5.80;99.90;;;;;;1887182;75;21209;-82
2022/01/14 15:41:28;;;;;;;23.80;15.75;;;5.70;99.90;;;;;;1905610;75;21084;-83
2022/01/14 15:44:34;;;;;;;22.05;15.80;;;5.60;99.90;;;;;;1893991;75;21100;-81
2022/01/14 15:50:23;;;;;;;22.67;16.02;;;5.50;99.90;;;;;;1952301;72;22190;-82
2022/01/14 15:53:15;;;;;;;24.10;16.87;;;5.40;99.90;;;;;;1831969;77;21227;-82
2022/01/14 15:59:22;;;;;;;21.20;14.43;;;5.30;99.90;;;;;;1898073;75;21094;-82
2022/01/14 16:02:14;;;;;;;21.37;14.55;;;5.30;99.90;;;;;;1895098;75;21050;-82
2022/01/14 16:05:06;;;;;;;22.13;15.38;;;5.20;99.90;;;;;;1891504;75;21176;-82
2022/01/14 16:08:00;;;;;;;26.73;14.58;;;5.20;99.90;;;;;;1884287;76;21147;-82
2022/01/14 16:10:54;;;;;;;23.45;14.60;;;5.10;99.90;;;;;;1900144;75;21210;-81
2022/01/14 16:13:51;;;;;;;22.05;15.48;;;5.10;99.90;;;;;;1895113;75;21067;-81
2022/01/14 16:16:38;;;;;;;20.80;14.50;;;5.10;99.90;;;;;;1895236;75;21149;-83
2022/01/14 16:19:30;;;;;;;22.85;14.68;;;5.10;99.90;;;;;;1895591;75;21063;-81
2022/01/14 16:22:21;;;;;;;22.55;14.53;;;5.10;99.90;;;;;;1899873;75;21116;-82
2022/01/14 16:25:15;;;;;;;20.88;14.07;;;5.10;99.90;;;;;;1896691;75;21059;-82
2022/01/14 16:28:10;;;;;;;18.62;13.18;;;5.10;99.90;;;;;;1895372;75;21197;-81
2022/01/14 16:31:00;;;;;;;19.60;13.43;;;5.00;99.90;;;;;;1895197;75;21122;-83
2022/01/14 16:33:52;;;;;;;22.45;13.90;;;4.90;99.90;;;;;;1917521;75;21192;-82
2022/01/14 16:36:43;;;;;;;21.75;12.88;;;4.80;99.90;;;;;;1899443;75;21047;-82
2022/01/14 16:39:35;;;;;;;21.02;12.73;;;4.80;99.90;;;;;;1908268;75;21133;-82
2022/01/14 16:42:28;;;;;;;22.62;13.75;;;4.80;99.90;;;;;;1906127;75;21047;-82
2022/01/14 16:45:20;;;;;;;19.87;12.95;;;4.80;99.90;;;;;;1884267;76;21121;-83
2022/01/14 16:48:12;;;;;;;22.07;12.30;;;4.70;99.90;;;;;;1884487;75;21137;-81
2022/01/14 16:51:04;;;;;;;17.95;12.30;;;4.70;99.90;;;;;;1873669;75;21132;-81
2022/01/14 16:53:59;;;;;;;16.95;11.78;;;4.70;99.90;;;;;;1872353;75;21143;-82
2022/01/14 16:56:50;;;;;;;17.12;10.93;;;4.60;99.90;;;;;;1885105;75;21169;-87
2022/01/14 16:59:42;;;;;;;20.23;10.93;;;4.60;99.90;;;;;;1887498;75;21067;-88
2022/01/14 17:02:34;;;;;;;18.82;11.75;;;4.50;99.90;;;;;;1896609;75;21059;-87
2022/01/14 17:05:27;;;;;;;18.05;11.88;;;4.50;99.90;;;;;;1897391;75;21185;-87
2022/01/14 17:08:19;;;;;;;14.68;11.00;;;4.50;99.90;;;;;;1886814;75;21165;-86
2022/01/14 17:11:10;;;;;;;18.45;12.33;;;4.50;99.90;;;;;;1885067;75;21067;-87
2022/01/14 17:14:02;;;;;;;21.23;12.13;;;4.40;99.90;;;;;;1898125;75;21051;-87
2022/01/14 17:16:53;;;;;;;19.23;12.30;;;4.40;99.90;;;;;;1907699;75;21104;-88
2022/01/14 17:19:45;;;;;;;21.50;14.03;;;4.30;99.90;;;;;;1887801;75;21101;-87
2022/01/14 17:22:37;;;;;;;20.92;13.13;;;4.30;99.90;;;;;;1883550;75;21071;-87
2022/01/14 17:25:28;;;;;;;21.00;13.68;;;4.20;99.90;;;;;;1899694;75;21189;-87
2022/01/14 17:28:20;;;;;;;18.92;13.03;;;4.20;99.90;;;;;;1882585;75;21124;-87
2022/01/14 17:31:13;;;;;;;20.50;13.35;;;4.20;99.90;;;;;;1889422;75;21055;-87
2022/01/14 17:34:04;;;;;;;21.02;12.85;;;4.20;99.90;;;;;;1893464;75;21130;-87
2022/01/14 17:36:56;;;;;;;21.07;12.93;;;4.10;99.90;;;;;;1871972;77;21098;-87
2022/01/14 17:39:47;;;;;;;23.38;13.25;;;4.20;99.90;;;;;;1895292;75;21059;-87
2022/01/14 17:42:39;;;;;;;21.57;12.95;;;4.10;99.90;;;;;;1882363;75;21048;-87
2022/01/14 17:45:30;;;;;;;22.07;14.10;;;4.00;99.90;;;;;;1894507;75;21091;-86
2022/01/14 17:48:23;;;;;;;20.95;13.98;;;4.00;99.90;;;;;;1880143;75;21055;-87
2022/01/14 17:51:16;;;;;;;24.77;14.58;;;4.00;99.90;;;;;;1897205;74;21055;-87
2022/01/14 17:54:07;;;;;;;24.52;15.15;;;4.00;99.90;;;;;;1895365;74;21068;-88
2022/01/14 17:56:59;;;;;;;24.57;15.95;;;3.90;99.90;;;;;;1893061;74;21141;-87
2022/01/14 17:59:50;;;;;;;21.90;14.00;;;4.00;99.90;;;;;;1913280;74;21576;-87
2022/01/14 18:02:42;;;;;;;20.02;12.98;;;3.90;99.90;;;;;;1926472;74;21075;-87
2022/01/14 18:05:34;;;;;;;20.90;12.68;;;3.90;99.90;;;;;;1926246;74;21595;-87
2022/01/14 18:08:26;;;;;;;19.40;11.50;;;3.90;99.90;;;;;;1926332;74;21144;-87
2022/01/14 18:11:21;;;;;;;20.00;11.53;;;3.90;99.90;;;;;;1905048;74;21133;-86
2022/01/14 18:14:19;;;;;;;18.90;11.33;;;3.90;99.90;;;;;;1909685;74;21051;-87
2022/01/14 18:17:11;;;;;;;19.20;11.55;;;3.80;99.90;;;;;;1906405;74;21109;-87
2022/01/14 18:20:23;;;;;;;19.85;12.00;;;3.80;99.90;;;;;;1896274;74;21094;-87
2022/01/14 18:23:40;;;;;;;16.00;11.00;;;3.70;99.90;;;;;;1906798;74;21039;-86
2022/01/14 18:26:31;;;;;;;21.25;10.82;;;3.70;99.90;;;;;;1904128;74;21050;-88
2022/01/14 18:29:23;;;;;;;21.05;11.57;;;3.60;99.90;;;;;;1904449;74;21084;-88
2022/01/14 18:32:15;;;;;;;16.65;11.30;;;3.50;99.90;;;;;;1906642;74;21062;-88
2022/01/14 18:35:09;;;;;;;17.55;11.33;;;3.50;99.90;;;;;;1908085;74;21179;-87
2022/01/14 18:38:00;;;;;;;15.95;10.75;;;3.40;99.90;;;;;;1926364;74;21086;-88
2022/01/14 18:40:54;;;;;;;20.00;11.75;;;3.40;99.90;;;;;;1899338;74;21107;-88
2022/01/14 18:43:49;;;;;;;22.98;13.70;;;3.40;99.90;;;;;;1893509;74;21218;-88
2022/01/14 18:46:40;;;;;;;24.15;13.03;;;3.30;99.90;;;;;;1909291;74;21054;-87
2022/01/14 18:49:32;;;;;;;22.02;14.40;;;3.30;99.90;;;;;;1905729;74;21168;-87
2022/01/14 18:52:25;;;;;;;28.52;13.90;;;3.30;99.90;;;;;;1889758;74;21084;-87
2022/01/14 18:55:16;;;;;;;20.27;12.53;;;3.30;99.90;;;;;;1894539;75;21094;-88
2022/01/14 18:58:08;;;;;;;23.27;13.85;;;3.30;99.90;;;;;;1898291;75;21727;-88
2022/01/14 19:01:00;;;;;;;20.40;12.53;;;3.30;99.90;;;;;;1883821;76;21055;-87
2022/01/14 19:03:52;;;;;;;20.72;13.30;;;3.30;99.90;;;;;;1905859;75;21054;-87
2022/01/14 19:06:44;;;;;;;24.82;14.80;;;3.20;99.90;;;;;;1893875;75;21111;-87
2022/01/14 19:09:39;;;;;;;19.27;13.05;;;3.20;99.90;;;;;;1904705;75;21055;-88
2022/01/14 19:12:31;;;;;;;18.12;12.45;;;3.20;99.90;;;;;;1888072;75;21113;-87
2022/01/14 19:15:25;;;;;;;19.73;13.15;;;3.20;99.90;;;;;;1895001;75;21051;-87
2022/01/14 19:18:17;;;;;;;20.27;13.15;;;3.20;99.90;;;;;;1882908;75;21193;-87
2022/01/14 19:21:09;;;;;;;22.22;13.45;;;3.10;99.90;;;;;;1892780;75;21180;-88